Delta Virtual Airport Information Service

Bristol Airport

ICAO: EGGD Country: United Kingdom
Latitude: 51.3827 Longitude: -2.71908
Latest Arrival : RYR504 (EIDW-EGGD) Latest Departure : EZY401 (1) (EGGD-EGPF)


WX CaptureLIVE
Data provided by noaa.gov | Fetched at 01:49:28

METAR : EGGD 300620Z AUTO 08007KT 0150 R09/0400N FG VV/// 04/03 Q1022

TAF : EGGD 300620Z AUTO 08007KT 0150 R09/0400N FG VV/// 04/03 Q1022


Runway Data for EGGD
Data provided by openaviationdata.com

Runway ID Mag Var Hdg Length Elevation Surface ILS Freq ILS Id ILS Slope
9 -1 88° 6603 ft 622 ft Asphalt 110.15 IBON 3
27 -1 268° 6603 ft 622 ft Asphalt 110.15 IBTS 3

Bristol Airport, United Kingdom
Use only for reference purposes



Not for navigational purposes.